sensor_id;sensor_type;location;lat;lon;timestamp;temperature;humidity
306;DHT22;137;48.578;9.180;2022-12-04T00:02:10;1.80;98.20
306;DHT22;137;48.578;9.180;2022-12-04T00:04:37;1.90;98.20
306;DHT22;137;48.578;9.180;2022-12-04T00:07:04;1.90;98.20
306;DHT22;137;48.578;9.180;2022-12-04T00:09:31;1.90;98.20
306;DHT22;137;48.578;9.180;2022-12-04T00:11:58;1.90;98.20
306;DHT22;137;48.578;9.180;2022-12-04T00:14:24;2.00;98.20
306;DHT22;137;48.578;9.180;2022-12-04T00:16:53;2.00;98.20
306;DHT22;137;48.578;9.180;2022-12-04T00:19:21;2.00;98.20
306;DHT22;137;48.578;9.180;2022-12-04T00:21:48;2.00;98.20
306;DHT22;137;48.578;9.180;2022-12-04T00:24:15;2.00;98.20
306;DHT22;137;48.578;9.180;2022-12-04T00:26:42;2.00;98.20
306;DHT22;137;48.578;9.180;2022-12-04T00:29:08;2.00;98.20
306;DHT22;137;48.578;9.180;2022-12-04T00:31:35;1.90;98.20
306;DHT22;137;48.578;9.180;2022-12-04T00:34:02;1.90;98.20
306;DHT22;137;48.578;9.180;2022-12-04T00:36:30;1.90;98.20
306;DHT22;137;48.578;9.180;2022-12-04T00:38:58;1.90;98.20
306;DHT22;137;48.578;9.180;2022-12-04T00:41:27;1.90;98.20
306;DHT22;137;48.578;9.180;2022-12-04T00:43:54;1.80;98.20
306;DHT22;137;48.578;9.180;2022-12-04T00:46:21;1.80;98.20
306;DHT22;137;48.578;9.180;2022-12-04T00:48:48;1.80;98.20
306;DHT22;137;48.578;9.180;2022-12-04T00:51:17;1.80;98.20
306;DHT22;137;48.578;9.180;2022-12-04T00:53:46;1.80;98.20
306;DHT22;137;48.578;9.180;2022-12-04T00:56:15;1.80;98.20
306;DHT22;137;48.578;9.180;2022-12-04T00:58:42;1.80;98.20
306;DHT22;137;48.578;9.180;2022-12-04T01:01:11;1.90;98.20
306;DHT22;137;48.578;9.180;2022-12-04T01:03:38;1.80;98.20
306;DHT22;137;48.578;9.180;2022-12-04T01:06:06;1.90;98.20
306;DHT22;137;48.578;9.180;2022-12-04T01:08:33;1.90;98.20
306;DHT22;137;48.578;9.180;2022-12-04T01:11:05;1.80;98.20
306;DHT22;137;48.578;9.180;2022-12-04T01:13:32;1.90;98.20
306;DHT22;137;48.578;9.180;2022-12-04T01:15:59;1.90;98.20
306;DHT22;137;48.578;9.180;2022-12-04T01:18:26;1.90;98.20
306;DHT22;137;48.578;9.180;2022-12-04T01:20:53;1.90;98.20
306;DHT22;137;48.578;9.180;2022-12-04T01:23:19;1.90;98.20
306;DHT22;137;48.578;9.180;2022-12-04T01:25:51;2.00;98.20
306;DHT22;137;48.578;9.180;2022-12-04T01:28:19;2.00;98.20
306;DHT22;137;48.578;9.180;2022-12-04T01:30:56;1.90;98.20
306;DHT22;137;48.578;9.180;2022-12-04T01:33:23;1.90;98.20
306;DHT22;137;48.578;9.180;2022-12-04T01:35:52;1.90;98.20
306;DHT22;137;48.578;9.180;2022-12-04T01:38:19;1.90;98.20
306;DHT22;137;48.578;9.180;2022-12-04T01:40:45;1.90;98.20
306;DHT22;137;48.578;9.180;2022-12-04T01:43:12;2.00;98.20
306;DHT22;137;48.578;9.180;2022-12-04T01:45:42;2.10;98.20
306;DHT22;137;48.578;9.180;2022-12-04T01:48:15;2.10;98.20
306;DHT22;137;48.578;9.180;2022-12-04T01:50:44;2.10;98.20
306;DHT22;137;48.578;9.180;2022-12-04T01:53:13;2.10;98.20
306;DHT22;137;48.578;9.180;2022-12-04T01:55:40;2.10;98.20
306;DHT22;137;48.578;9.180;2022-12-04T01:58:08;2.10;98.20
306;DHT22;137;48.578;9.180;2022-12-04T02:00:35;2.10;98.20
306;DHT22;137;48.578;9.180;2022-12-04T02:03:04;2.10;98.20
306;DHT22;137;48.578;9.180;2022-12-04T02:05:30;2.20;98.20
306;DHT22;137;48.578;9.180;2022-12-04T02:08:00;2.20;98.20
306;DHT22;137;48.578;9.180;2022-12-04T02:10:36;2.10;98.20
306;DHT22;137;48.578;9.180;2022-12-04T02:13:10;2.10;98.20
306;DHT22;137;48.578;9.180;2022-12-04T02:15:45;2.00;98.20
306;DHT22;137;48.578;9.180;2022-12-04T02:18:23;2.10;98.20
306;DHT22;137;48.578;9.180;2022-12-04T02:20:59;2.10;98.20
306;DHT22;137;48.578;9.180;2022-12-04T02:23:42;2.20;98.20
306;DHT22;137;48.578;9.180;2022-12-04T02:26:29;2.20;98.20
306;DHT22;137;48.578;9.180;2022-12-04T02:29:06;2.20;98.20
306;DHT22;137;48.578;9.180;2022-12-04T02:31:41;2.20;98.20
306;DHT22;137;48.578;9.180;2022-12-04T02:34:13;2.30;98.20
306;DHT22;137;48.578;9.180;2022-12-04T02:36:46;2.30;98.20
306;DHT22;137;48.578;9.180;2022-12-04T02:39:20;2.30;98.20
306;DHT22;137;48.578;9.180;2022-12-04T02:41:53;2.30;98.20
306;DHT22;137;48.578;9.180;2022-12-04T02:44:26;2.20;98.20
306;DHT22;137;48.578;9.180;2022-12-04T02:46:56;2.20;98.20
306;DHT22;137;48.578;9.180;2022-12-04T02:49:28;2.20;98.20
306;DHT22;137;48.578;9.180;2022-12-04T02:51:57;2.10;98.20
306;DHT22;137;48.578;9.180;2022-12-04T02:54:31;2.10;98.20
306;DHT22;137;48.578;9.180;2022-12-04T02:57:00;2.20;98.20
306;DHT22;137;48.578;9.180;2022-12-04T02:59:32;2.20;98.20
306;DHT22;137;48.578;9.180;2022-12-04T03:02:06;2.30;98.20
306;DHT22;137;48.578;9.180;2022-12-04T03:04:35;2.20;98.20
306;DHT22;137;48.578;9.180;2022-12-04T03:07:10;2.20;98.20
306;DHT22;137;48.578;9.180;2022-12-04T03:09:42;2.20;98.20
306;DHT22;137;48.578;9.180;2022-12-04T03:12:15;2.20;98.20
306;DHT22;137;48.578;9.180;2022-12-04T03:14:48;2.20;98.20
306;DHT22;137;48.578;9.180;2022-12-04T03:17:20;2.20;98.20
306;DHT22;137;48.578;9.180;2022-12-04T03:19:52;2.20;98.20
306;DHT22;137;48.578;9.180;2022-12-04T03:22:20;2.20;98.20
306;DHT22;137;48.578;9.180;2022-12-04T03:24:51;2.20;98.20
306;DHT22;137;48.578;9.180;2022-12-04T03:27:23;2.20;98.20
306;DHT22;137;48.578;9.180;2022-12-04T03:29:58;2.30;98.20
306;DHT22;137;48.578;9.180;2022-12-04T03:32:31;2.20;98.20
306;DHT22;137;48.578;9.180;2022-12-04T03:35:02;2.20;98.20
306;DHT22;137;48.578;9.180;2022-12-04T03:37:34;2.20;98.20
306;DHT22;137;48.578;9.180;2022-12-04T03:40:06;2.20;98.20
306;DHT22;137;48.578;9.180;2022-12-04T03:42:39;2.10;98.20
306;DHT22;137;48.578;9.180;2022-12-04T03:45:14;2.10;98.20
306;DHT22;137;48.578;9.180;2022-12-04T03:47:47;2.10;98.20
306;DHT22;137;48.578;9.180;2022-12-04T03:50:20;2.10;98.20
306;DHT22;137;48.578;9.180;2022-12-04T03:52:57;2.00;98.20
306;DHT22;137;48.578;9.180;2022-12-04T03:55:28;2.00;98.20
306;DHT22;137;48.578;9.180;2022-12-04T03:58:01;2.00;98.20
306;DHT22;137;48.578;9.180;2022-12-04T04:00:32;2.00;98.20
306;DHT22;137;48.578;9.180;2022-12-04T04:03:06;2.10;98.20
306;DHT22;137;48.578;9.180;2022-12-04T04:05:36;2.10;98.20
306;DHT22;137;48.578;9.180;2022-12-04T04:08:06;2.10;98.20
306;DHT22;137;48.578;9.180;2022-12-04T04:10:56;2.10;98.20
306;DHT22;137;48.578;9.180;2022-12-04T04:13:29;2.10;98.20
306;DHT22;137;48.578;9.180;2022-12-04T04:16:19;2.00;98.20
306;DHT22;137;48.578;9.180;2022-12-04T04:19:06;2.00;98.20
306;DHT22;137;48.578;9.180;2022-12-04T04:21:52;1.90;98.20
306;DHT22;137;48.578;9.180;2022-12-04T04:24:40;2.00;98.20
306;DHT22;137;48.578;9.180;2022-12-04T04:27:08;2.00;98.20
306;DHT22;137;48.578;9.180;2022-12-04T04:29:35;2.10;98.20
306;DHT22;137;48.578;9.180;2022-12-04T04:32:10;2.00;98.20
306;DHT22;137;48.578;9.180;2022-12-04T04:34:47;1.90;98.20
306;DHT22;137;48.578;9.180;2022-12-04T04:37:21;2.00;98.20
306;DHT22;137;48.578;9.180;2022-12-04T04:39:57;2.10;98.20
306;DHT22;137;48.578;9.180;2022-12-04T04:42:29;2.10;98.20
306;DHT22;137;48.578;9.180;2022-12-04T04:45:01;2.10;98.20
306;DHT22;137;48.578;9.180;2022-12-04T04:47:33;2.10;98.20
306;DHT22;137;48.578;9.180;2022-12-04T04:50:05;2.10;98.20
306;DHT22;137;48.578;9.180;2022-12-04T04:52:33;2.10;98.20
306;DHT22;137;48.578;9.180;2022-12-04T04:55:03;2.10;98.20
306;DHT22;137;48.578;9.180;2022-12-04T04:57:32;2.10;98.20
306;DHT22;137;48.578;9.180;2022-12-04T05:00:00;2.10;98.20
306;DHT22;137;48.578;9.180;2022-12-04T05:02:27;2.10;98.20
306;DHT22;137;48.578;9.180;2022-12-04T05:04:55;2.10;98.20
306;DHT22;137;48.578;9.180;2022-12-04T05:07:22;2.10;98.20
306;DHT22;137;48.578;9.180;2022-12-04T05:09:49;2.10;98.20
306;DHT22;137;48.578;9.180;2022-12-04T05:12:15;2.10;98.20
306;DHT22;137;48.578;9.180;2022-12-04T05:14:42;2.10;98.20
306;DHT22;137;48.578;9.180;2022-12-04T05:17:09;2.10;98.20
306;DHT22;137;48.578;9.180;2022-12-04T05:19:36;2.00;98.20
306;DHT22;137;48.578;9.180;2022-12-04T05:22:25;2.10;98.20
306;DHT22;137;48.578;9.180;2022-12-04T05:24:52;2.10;98.20
306;DHT22;137;48.578;9.180;2022-12-04T05:27:19;2.10;98.20
306;DHT22;137;48.578;9.180;2022-12-04T05:29:46;2.10;98.20
306;DHT22;137;48.578;9.180;2022-12-04T05:32:14;2.20;98.20
306;DHT22;137;48.578;9.180;2022-12-04T05:34:41;2.10;98.20
306;DHT22;137;48.578;9.180;2022-12-04T05:37:07;2.10;98.20
306;DHT22;137;48.578;9.180;2022-12-04T05:39:36;2.10;98.20
306;DHT22;137;48.578;9.180;2022-12-04T05:42:02;2.10;98.20
306;DHT22;137;48.578;9.180;2022-12-04T05:44:29;2.10;98.20
306;DHT22;137;48.578;9.180;2022-12-04T05:46:56;2.10;98.20
306;DHT22;137;48.578;9.180;2022-12-04T05:49:23;2.10;98.20
306;DHT22;137;48.578;9.180;2022-12-04T05:51:50;2.00;98.20
306;DHT22;137;48.578;9.180;2022-12-04T05:54:17;2.00;98.20
306;DHT22;137;48.578;9.180;2022-12-04T05:56:46;2.00;98.20
306;DHT22;137;48.578;9.180;2022-12-04T05:59:13;2.10;98.20
306;DHT22;137;48.578;9.180;2022-12-04T06:01:40;2.00;98.20
306;DHT22;137;48.578;9.180;2022-12-04T06:04:07;1.90;98.20
306;DHT22;137;48.578;9.180;2022-12-04T06:06:34;2.00;98.20
306;DHT22;137;48.578;9.180;2022-12-04T06:09:02;2.10;98.20
306;DHT22;137;48.578;9.180;2022-12-04T06:11:30;2.10;98.20
306;DHT22;137;48.578;9.180;2022-12-04T06:14:01;2.10;98.20
306;DHT22;137;48.578;9.180;2022-12-04T06:16:29;2.10;98.20
306;DHT22;137;48.578;9.180;2022-12-04T06:18:58;2.10;98.20
306;DHT22;137;48.578;9.180;2022-12-04T06:21:28;2.00;98.20
306;DHT22;137;48.578;9.180;2022-12-04T06:23:55;2.10;98.20
306;DHT22;137;48.578;9.180;2022-12-04T06:26:22;2.20;98.20
306;DHT22;137;48.578;9.180;2022-12-04T06:28:51;2.20;98.20
306;DHT22;137;48.578;9.180;2022-12-04T06:31:20;2.20;98.20
306;DHT22;137;48.578;9.180;2022-12-04T06:33:48;2.20;98.20
306;DHT22;137;48.578;9.180;2022-12-04T06:36:17;2.20;98.20
306;DHT22;137;48.578;9.180;2022-12-04T06:38:46;2.20;98.20
306;DHT22;137;48.578;9.180;2022-12-04T06:41:15;2.10;98.20
306;DHT22;137;48.578;9.180;2022-12-04T06:43:42;2.10;98.20
306;DHT22;137;48.578;9.180;2022-12-04T06:46:11;2.00;98.20
306;DHT22;137;48.578;9.180;2022-12-04T06:48:40;2.10;98.20
306;DHT22;137;48.578;9.180;2022-12-04T06:51:09;2.10;98.20
306;DHT22;137;48.578;9.180;2022-12-04T06:53:37;2.10;98.20
306;DHT22;137;48.578;9.180;2022-12-04T06:56:05;2.20;98.20
306;DHT22;137;48.578;9.180;2022-12-04T06:58:33;2.30;98.20
306;DHT22;137;48.578;9.180;2022-12-04T07:01:05;2.20;98.20
306;DHT22;137;48.578;9.180;2022-12-04T07:03:32;2.20;98.20
306;DHT22;137;48.578;9.180;2022-12-04T07:06:09;2.30;98.20
306;DHT22;137;48.578;9.180;2022-12-04T07:08:36;2.30;98.20
306;DHT22;137;48.578;9.180;2022-12-04T07:11:03;2.20;98.20
306;DHT22;137;48.578;9.180;2022-12-04T07:13:30;2.20;98.20
306;DHT22;137;48.578;9.180;2022-12-04T07:15:59;2.20;98.20
306;DHT22;137;48.578;9.180;2022-12-04T07:18:26;2.20;98.20
306;DHT22;137;48.578;9.180;2022-12-04T07:20:52;2.30;98.20
306;DHT22;137;48.578;9.180;2022-12-04T07:23:20;2.30;98.20
306;DHT22;137;48.578;9.180;2022-12-04T07:25:47;2.30;98.20
306;DHT22;137;48.578;9.180;2022-12-04T07:28:14;2.30;98.20
306;DHT22;137;48.578;9.180;2022-12-04T07:30:41;2.30;98.20
306;DHT22;137;48.578;9.180;2022-12-04T07:33:09;2.30;98.20
306;DHT22;137;48.578;9.180;2022-12-04T07:35:35;2.40;98.20
306;DHT22;137;48.578;9.180;2022-12-04T07:38:02;2.40;98.20
306;DHT22;137;48.578;9.180;2022-12-04T07:40:30;2.50;98.20
306;DHT22;137;48.578;9.180;2022-12-04T07:42:57;2.50;98.20
306;DHT22;137;48.578;9.180;2022-12-04T07:45:24;2.40;98.20
306;DHT22;137;48.578;9.180;2022-12-04T07:47:51;2.50;98.20
306;DHT22;137;48.578;9.180;2022-12-04T07:50:17;2.50;98.20
306;DHT22;137;48.578;9.180;2022-12-04T07:52:44;2.50;98.20
306;DHT22;137;48.578;9.180;2022-12-04T07:55:11;2.50;98.20
306;DHT22;137;48.578;9.180;2022-12-04T07:57:39;2.40;98.20
306;DHT22;137;48.578;9.180;2022-12-04T08:00:08;2.40;98.20
306;DHT22;137;48.578;9.180;2022-12-04T08:02:35;2.40;98.20
306;DHT22;137;48.578;9.180;2022-12-04T08:05:02;2.50;98.20
306;DHT22;137;48.578;9.180;2022-12-04T08:07:29;2.50;98.20
306;DHT22;137;48.578;9.180;2022-12-04T08:09:55;2.60;98.20
306;DHT22;137;48.578;9.180;2022-12-04T08:12:22;2.70;98.20
306;DHT22;137;48.578;9.180;2022-12-04T08:14:50;2.80;98.20
306;DHT22;137;48.578;9.180;2022-12-04T08:17:17;2.80;98.20
306;DHT22;137;48.578;9.180;2022-12-04T08:19:44;2.80;98.20
306;DHT22;137;48.578;9.180;2022-12-04T08:22:11;2.90;98.20
306;DHT22;137;48.578;9.180;2022-12-04T08:24:38;2.90;98.20
306;DHT22;137;48.578;9.180;2022-12-04T08:27:05;3.00;98.20
306;DHT22;137;48.578;9.180;2022-12-04T08:29:31;2.90;98.20
306;DHT22;137;48.578;9.180;2022-12-04T08:32:00;2.90;98.20
306;DHT22;137;48.578;9.180;2022-12-04T08:34:26;2.90;98.20
306;DHT22;137;48.578;9.180;2022-12-04T08:36:53;3.00;98.20
306;DHT22;137;48.578;9.180;2022-12-04T08:39:20;3.00;98.20
306;DHT22;137;48.578;9.180;2022-12-04T08:41:47;3.10;98.20
306;DHT22;137;48.578;9.180;2022-12-04T08:44:14;3.00;98.20
306;DHT22;137;48.578;9.180;2022-12-04T08:46:40;3.10;98.20
306;DHT22;137;48.578;9.180;2022-12-04T08:49:08;3.10;98.20
306;DHT22;137;48.578;9.180;2022-12-04T08:51:35;3.10;98.20
306;DHT22;137;48.578;9.180;2022-12-04T08:54:04;3.00;98.20
306;DHT22;137;48.578;9.180;2022-12-04T08:56:31;3.00;98.20
306;DHT22;137;48.578;9.180;2022-12-04T08:58:59;3.10;98.20
306;DHT22;137;48.578;9.180;2022-12-04T09:01:27;3.00;98.20
306;DHT22;137;48.578;9.180;2022-12-04T09:03:54;3.00;98.20
306;DHT22;137;48.578;9.180;2022-12-04T09:06:22;3.00;98.20
306;DHT22;137;48.578;9.180;2022-12-04T09:08:51;3.00;98.20
306;DHT22;137;48.578;9.180;2022-12-04T09:11:21;3.00;98.20
306;DHT22;137;48.578;9.180;2022-12-04T09:13:48;3.00;98.20
306;DHT22;137;48.578;9.180;2022-12-04T09:16:18;3.10;98.20
306;DHT22;137;48.578;9.180;2022-12-04T09:18:45;3.20;98.20
306;DHT22;137;48.578;9.180;2022-12-04T09:21:14;3.20;98.20
306;DHT22;137;48.578;9.180;2022-12-04T09:23:43;3.20;98.20
306;DHT22;137;48.578;9.180;2022-12-04T09:26:16;3.20;98.20
306;DHT22;137;48.578;9.180;2022-12-04T09:28:44;3.20;98.20
306;DHT22;137;48.578;9.180;2022-12-04T09:31:11;3.30;98.20
306;DHT22;137;48.578;9.180;2022-12-04T09:33:38;3.40;98.20
306;DHT22;137;48.578;9.180;2022-12-04T09:36:05;3.30;98.20
306;DHT22;137;48.578;9.180;2022-12-04T09:38:32;3.20;98.20
306;DHT22;137;48.578;9.180;2022-12-04T09:41:06;3.30;98.20
306;DHT22;137;48.578;9.180;2022-12-04T09:43:42;3.30;98.20
306;DHT22;137;48.578;9.180;2022-12-04T09:46:13;3.30;98.20
306;DHT22;137;48.578;9.180;2022-12-04T09:48:43;3.20;98.20
306;DHT22;137;48.578;9.180;2022-12-04T09:51:15;3.30;98.20
306;DHT22;137;48.578;9.180;2022-12-04T09:53:46;3.30;98.20
306;DHT22;137;48.578;9.180;2022-12-04T09:56:17;3.50;98.20
306;DHT22;137;48.578;9.180;2022-12-04T09:58:48;3.40;98.20
306;DHT22;137;48.578;9.180;2022-12-04T10:01:22;3.30;98.20
306;DHT22;137;48.578;9.180;2022-12-04T10:03:51;3.20;98.20
306;DHT22;137;48.578;9.180;2022-12-04T10:06:21;3.10;98.20
306;DHT22;137;48.578;9.180;2022-12-04T10:08:53;3.00;98.20
306;DHT22;137;48.578;9.180;2022-12-04T10:11:29;3.10;98.20
306;DHT22;137;48.578;9.180;2022-12-04T10:14:07;3.10;98.20
306;DHT22;137;48.578;9.180;2022-12-04T10:16:45;3.10;98.20
306;DHT22;137;48.578;9.180;2022-12-04T10:19:17;3.10;98.20
306;DHT22;137;48.578;9.180;2022-12-04T10:21:55;3.10;98.20
306;DHT22;137;48.578;9.180;2022-12-04T10:24:36;3.20;98.20
306;DHT22;137;48.578;9.180;2022-12-04T10:27:11;3.30;98.20
306;DHT22;137;48.578;9.180;2022-12-04T10:29:40;3.10;98.20
306;DHT22;137;48.578;9.180;2022-12-04T10:32:16;3.20;98.20
306;DHT22;137;48.578;9.180;2022-12-04T10:34:44;3.10;98.20
306;DHT22;137;48.578;9.180;2022-12-04T10:37:13;3.20;98.20
306;DHT22;137;48.578;9.180;2022-12-04T10:39:46;3.20;98.20
306;DHT22;137;48.578;9.180;2022-12-04T10:42:23;3.30;98.20
306;DHT22;137;48.578;9.180;2022-12-04T10:44:52;3.20;98.20
306;DHT22;137;48.578;9.180;2022-12-04T10:47:19;3.10;98.20
306;DHT22;137;48.578;9.180;2022-12-04T10:49:49;3.10;98.20
306;DHT22;137;48.578;9.180;2022-12-04T10:52:20;3.10;98.20
306;DHT22;137;48.578;9.180;2022-12-04T10:54:50;3.10;98.20
306;DHT22;137;48.578;9.180;2022-12-04T10:57:19;3.10;98.20
306;DHT22;137;48.578;9.180;2022-12-04T10:59:50;3.10;98.20
306;DHT22;137;48.578;9.180;2022-12-04T11:02:20;3.10;98.20
306;DHT22;137;48.578;9.180;2022-12-04T11:04:54;3.10;98.20
306;DHT22;137;48.578;9.180;2022-12-04T11:07:23;3.10;98.20
306;DHT22;137;48.578;9.180;2022-12-04T11:09:55;3.20;98.20
306;DHT22;137;48.578;9.180;2022-12-04T11:12:23;3.10;98.20
306;DHT22;137;48.578;9.180;2022-12-04T11:14:59;3.10;98.20
306;DHT22;137;48.578;9.180;2022-12-04T11:17:26;3.10;98.20
306;DHT22;137;48.578;9.180;2022-12-04T11:19:58;3.10;98.20
306;DHT22;137;48.578;9.180;2022-12-04T11:22:25;3.20;98.20
306;DHT22;137;48.578;9.180;2022-12-04T11:24:55;3.20;98.20
306;DHT22;137;48.578;9.180;2022-12-04T11:27:26;3.30;98.20
306;DHT22;137;48.578;9.180;2022-12-04T11:29:56;3.30;98.20
306;DHT22;137;48.578;9.180;2022-12-04T11:32:25;3.40;98.20
306;DHT22;137;48.578;9.180;2022-12-04T11:34:56;3.40;98.20
306;DHT22;137;48.578;9.180;2022-12-04T11:37:25;3.30;98.20
306;DHT22;137;48.578;9.180;2022-12-04T11:39:54;3.40;98.20
306;DHT22;137;48.578;9.180;2022-12-04T11:42:31;3.40;98.20
306;DHT22;137;48.578;9.180;2022-12-04T11:44:59;3.30;98.20
306;DHT22;137;48.578;9.180;2022-12-04T11:47:27;3.20;98.20
306;DHT22;137;48.578;9.180;2022-12-04T11:50:11;3.20;98.20
306;DHT22;137;48.578;9.180;2022-12-04T11:52:54;3.30;98.20
306;DHT22;137;48.578;9.180;2022-12-04T11:55:27;3.40;98.20
306;DHT22;137;48.578;9.180;2022-12-04T11:58:10;3.40;98.20
306;DHT22;137;48.578;9.180;2022-12-04T12:00:47;3.50;98.20
306;DHT22;137;48.578;9.180;2022-12-04T12:03:20;3.60;98.20
306;DHT22;137;48.578;9.180;2022-12-04T12:06:03;3.50;98.20
306;DHT22;137;48.578;9.180;2022-12-04T12:08:43;3.40;98.20
306;DHT22;137;48.578;9.180;2022-12-04T12:11:17;3.40;98.20
306;DHT22;137;48.578;9.180;2022-12-04T12:13:56;3.50;98.20
306;DHT22;137;48.578;9.180;2022-12-04T12:16:33;3.50;98.20
306;DHT22;137;48.578;9.180;2022-12-04T12:19:25;3.60;98.20
306;DHT22;137;48.578;9.180;2022-12-04T12:21:59;3.60;98.20
306;DHT22;137;48.578;9.180;2022-12-04T12:24:32;3.60;98.20
306;DHT22;137;48.578;9.180;2022-12-04T12:27:08;3.60;98.20
306;DHT22;137;48.578;9.180;2022-12-04T12:29:52;3.60;98.20
306;DHT22;137;48.578;9.180;2022-12-04T12:32:30;3.70;98.20
306;DHT22;137;48.578;9.180;2022-12-04T12:35:05;3.70;98.20
306;DHT22;137;48.578;9.180;2022-12-04T12:37:46;3.80;98.20
306;DHT22;137;48.578;9.180;2022-12-04T12:40:25;3.90;98.20
306;DHT22;137;48.578;9.180;2022-12-04T12:42:56;3.90;98.20
306;DHT22;137;48.578;9.180;2022-12-04T12:45:32;3.90;98.20
306;DHT22;137;48.578;9.180;2022-12-04T12:48:10;3.70;98.20
306;DHT22;137;48.578;9.180;2022-12-04T12:50:42;3.70;98.20
306;DHT22;137;48.578;9.180;2022-12-04T12:53:13;3.60;98.20
306;DHT22;137;48.578;9.180;2022-12-04T12:55:44;3.60;98.20
306;DHT22;137;48.578;9.180;2022-12-04T12:58:16;3.80;98.20
306;DHT22;137;48.578;9.180;2022-12-04T13:00:53;3.70;98.20
306;DHT22;137;48.578;9.180;2022-12-04T13:03:27;3.50;98.20
306;DHT22;137;48.578;9.180;2022-12-04T13:06:02;3.50;98.20
306;DHT22;137;48.578;9.180;2022-12-04T13:08:35;3.40;98.20
306;DHT22;137;48.578;9.180;2022-12-04T13:11:06;3.50;98.20
306;DHT22;137;48.578;9.180;2022-12-04T13:13:38;3.50;98.20
306;DHT22;137;48.578;9.180;2022-12-04T13:16:11;3.50;98.20
306;DHT22;137;48.578;9.180;2022-12-04T13:18:42;3.50;98.20
306;DHT22;137;48.578;9.180;2022-12-04T13:21:24;3.50;98.20
306;DHT22;137;48.578;9.180;2022-12-04T13:24:03;3.60;98.20
306;DHT22;137;48.578;9.180;2022-12-04T13:26:41;3.70;98.20
306;DHT22;137;48.578;9.180;2022-12-04T13:29:15;3.80;98.20
306;DHT22;137;48.578;9.180;2022-12-04T13:31:55;3.80;98.20
306;DHT22;137;48.578;9.180;2022-12-04T13:34:41;3.60;98.20
306;DHT22;137;48.578;9.180;2022-12-04T13:37:36;3.40;98.20
306;DHT22;137;48.578;9.180;2022-12-04T13:40:36;3.20;98.20
306;DHT22;137;48.578;9.180;2022-12-04T13:43:16;3.20;98.20
306;DHT22;137;48.578;9.180;2022-12-04T13:45:45;3.20;98.20
306;DHT22;137;48.578;9.180;2022-12-04T13:48:30;3.20;98.20
306;DHT22;137;48.578;9.180;2022-12-04T13:51:03;3.20;98.20
306;DHT22;137;48.578;9.180;2022-12-04T13:53:31;3.20;98.20
306;DHT22;137;48.578;9.180;2022-12-04T13:55:59;3.20;98.20
306;DHT22;137;48.578;9.180;2022-12-04T13:58:29;3.20;98.20
306;DHT22;137;48.578;9.180;2022-12-04T14:01:02;3.20;98.20
306;DHT22;137;48.578;9.180;2022-12-04T14:03:31;3.30;98.20
306;DHT22;137;48.578;9.180;2022-12-04T14:05:59;3.30;98.20
306;DHT22;137;48.578;9.180;2022-12-04T14:08:35;3.20;98.20
306;DHT22;137;48.578;9.180;2022-12-04T14:11:05;3.30;98.20
306;DHT22;137;48.578;9.180;2022-12-04T14:13:42;3.40;98.20
306;DHT22;137;48.578;9.180;2022-12-04T14:16:17;3.50;98.20
306;DHT22;137;48.578;9.180;2022-12-04T14:18:48;3.50;98.20
306;DHT22;137;48.578;9.180;2022-12-04T14:21:16;3.50;98.20
306;DHT22;137;48.578;9.180;2022-12-04T14:23:43;3.60;98.20
306;DHT22;137;48.578;9.180;2022-12-04T14:26:23;3.60;98.20
306;DHT22;137;48.578;9.180;2022-12-04T14:28:50;3.70;98.20
306;DHT22;137;48.578;9.180;2022-12-04T14:31:31;3.70;98.20
306;DHT22;137;48.578;9.180;2022-12-04T14:34:02;3.50;98.20
306;DHT22;137;48.578;9.180;2022-12-04T14:36:33;3.50;98.20
306;DHT22;137;48.578;9.180;2022-12-04T14:39:04;3.50;98.20
306;DHT22;137;48.578;9.180;2022-12-04T14:41:33;3.50;98.20
306;DHT22;137;48.578;9.180;2022-12-04T14:44:00;3.50;98.20
306;DHT22;137;48.578;9.180;2022-12-04T14:46:35;3.50;98.20
306;DHT22;137;48.578;9.180;2022-12-04T14:49:22;3.40;98.20
306;DHT22;137;48.578;9.180;2022-12-04T14:51:57;3.30;98.20
306;DHT22;137;48.578;9.180;2022-12-04T14:54:31;3.30;98.20
306;DHT22;137;48.578;9.180;2022-12-04T14:57:09;3.30;98.20
306;DHT22;137;48.578;9.180;2022-12-04T14:59:43;3.40;98.20
306;DHT22;137;48.578;9.180;2022-12-04T15:02:12;3.50;98.20
306;DHT22;137;48.578;9.180;2022-12-04T15:04:43;3.60;98.20
306;DHT22;137;48.578;9.180;2022-12-04T15:07:17;3.60;98.20
306;DHT22;137;48.578;9.180;2022-12-04T15:09:50;3.60;98.20
306;DHT22;137;48.578;9.180;2022-12-04T15:12:40;3.60;98.20
306;DHT22;137;48.578;9.180;2022-12-04T15:15:16;3.60;98.20
306;DHT22;137;48.578;9.180;2022-12-04T15:17:57;3.60;98.20
306;DHT22;137;48.578;9.180;2022-12-04T15:20:26;3.50;98.20
306;DHT22;137;48.578;9.180;2022-12-04T15:22:55;3.40;98.20
306;DHT22;137;48.578;9.180;2022-12-04T15:25:25;3.50;98.20
306;DHT22;137;48.578;9.180;2022-12-04T15:27:59;3.50;98.20
306;DHT22;137;48.578;9.180;2022-12-04T15:30:29;3.50;98.20
306;DHT22;137;48.578;9.180;2022-12-04T15:32:56;3.50;98.20
306;DHT22;137;48.578;9.180;2022-12-04T15:35:27;3.40;98.20
306;DHT22;137;48.578;9.180;2022-12-04T15:37:55;3.30;98.20
306;DHT22;137;48.578;9.180;2022-12-04T15:40:24;3.30;98.20
306;DHT22;137;48.578;9.180;2022-12-04T15:42:51;3.20;98.20
306;DHT22;137;48.578;9.180;2022-12-04T15:45:24;3.30;98.20
306;DHT22;137;48.578;9.180;2022-12-04T15:47:54;3.40;98.20
306;DHT22;137;48.578;9.180;2022-12-04T15:50:24;3.30;98.20
306;DHT22;137;48.578;9.180;2022-12-04T15:53:01;3.30;98.20
306;DHT22;137;48.578;9.180;2022-12-04T15:55:31;3.30;98.20
306;DHT22;137;48.578;9.180;2022-12-04T15:58:00;3.30;98.20
306;DHT22;137;48.578;9.180;2022-12-04T16:00:30;3.40;98.20
306;DHT22;137;48.578;9.180;2022-12-04T16:02:58;3.30;98.20
306;DHT22;137;48.578;9.180;2022-12-04T16:05:31;3.40;98.20
306;DHT22;137;48.578;9.180;2022-12-04T16:08:25;3.30;98.20
306;DHT22;137;48.578;9.180;2022-12-04T16:10:56;3.40;98.20
306;DHT22;137;48.578;9.180;2022-12-04T16:13:30;3.30;98.20
306;DHT22;137;48.578;9.180;2022-12-04T16:15:57;3.20;98.20
306;DHT22;137;48.578;9.180;2022-12-04T16:18:25;3.10;98.20
306;DHT22;137;48.578;9.180;2022-12-04T16:20:52;3.10;98.20
306;DHT22;137;48.578;9.180;2022-12-04T16:23:21;3.00;98.20
306;DHT22;137;48.578;9.180;2022-12-04T16:25:49;2.90;98.20
306;DHT22;137;48.578;9.180;2022-12-04T16:28:16;2.80;98.20
306;DHT22;137;48.578;9.180;2022-12-04T16:30:43;2.80;98.20
306;DHT22;137;48.578;9.180;2022-12-04T16:33:12;2.90;98.20
306;DHT22;137;48.578;9.180;2022-12-04T16:35:39;2.90;98.20
306;DHT22;137;48.578;9.180;2022-12-04T16:38:11;2.90;98.20
306;DHT22;137;48.578;9.180;2022-12-04T16:40:38;2.80;98.20
306;DHT22;137;48.578;9.180;2022-12-04T16:43:09;2.80;98.20
306;DHT22;137;48.578;9.180;2022-12-04T16:45:37;2.80;98.20
306;DHT22;137;48.578;9.180;2022-12-04T16:48:04;2.70;98.20
306;DHT22;137;48.578;9.180;2022-12-04T16:50:31;2.70;98.20
306;DHT22;137;48.578;9.180;2022-12-04T16:52:58;2.80;98.20
306;DHT22;137;48.578;9.180;2022-12-04T16:55:28;2.80;98.20
306;DHT22;137;48.578;9.180;2022-12-04T16:57:56;2.90;98.20
306;DHT22;137;48.578;9.180;2022-12-04T17:00:24;3.00;98.20
306;DHT22;137;48.578;9.180;2022-12-04T17:02:51;3.10;98.20
306;DHT22;137;48.578;9.180;2022-12-04T17:05:20;3.20;98.20
306;DHT22;137;48.578;9.180;2022-12-04T17:07:48;3.30;98.20
306;DHT22;137;48.578;9.180;2022-12-04T17:10:15;3.30;98.20
306;DHT22;137;48.578;9.180;2022-12-04T17:12:42;3.30;98.20
306;DHT22;137;48.578;9.180;2022-12-04T17:15:10;3.40;98.20
306;DHT22;137;48.578;9.180;2022-12-04T17:17:39;3.40;98.20